sensor_id;sensor_type;location;lat;lon;timestamp;P1;durP1;ratioP1;P2;durP2;ratioP2
37647;SDS011;23490;53.656;10.076;2022-08-03T00:01:36;5.32;;;3.58;;
37647;SDS011;23490;53.656;10.076;2022-08-03T00:04:03;6.13;;;3.70;;
37647;SDS011;23490;53.656;10.076;2022-08-03T00:06:29;6.93;;;3.47;;
37647;SDS011;23490;53.656;10.076;2022-08-03T00:08:55;5.63;;;3.22;;
37647;SDS011;23490;53.656;10.076;2022-08-03T00:11:21;5.40;;;3.67;;
37647;SDS011;23490;53.656;10.076;2022-08-03T00:13:46;4.65;;;3.22;;
37647;SDS011;23490;53.656;10.076;2022-08-03T00:16:12;8.35;;;3.55;;
37647;SDS011;23490;53.656;10.076;2022-08-03T00:18:37;6.43;;;3.67;;
37647;SDS011;23490;53.656;10.076;2022-08-03T00:21:04;4.72;;;3.15;;
37647;SDS011;23490;53.656;10.076;2022-08-03T00:23:30;6.25;;;3.85;;
37647;SDS011;23490;53.656;10.076;2022-08-03T00:25:55;6.68;;;3.97;;
37647;SDS011;23490;53.656;10.076;2022-08-03T00:28:21;4.50;;;3.33;;
37647;SDS011;23490;53.656;10.076;2022-08-03T00:30:46;5.10;;;3.53;;
37647;SDS011;23490;53.656;10.076;2022-08-03T00:33:12;4.72;;;3.50;;
37647;SDS011;23490;53.656;10.076;2022-08-03T00:35:37;4.75;;;3.47;;
37647;SDS011;23490;53.656;10.076;2022-08-03T00:38:03;5.32;;;3.80;;
37647;SDS011;23490;53.656;10.076;2022-08-03T00:40:28;7.20;;;3.80;;
37647;SDS011;23490;53.656;10.076;2022-08-03T00:42:58;5.63;;;3.58;;
37647;SDS011;23490;53.656;10.076;2022-08-03T00:45:26;4.70;;;3.38;;
37647;SDS011;23490;53.656;10.076;2022-08-03T00:47:54;6.70;;;4.00;;
37647;SDS011;23490;53.656;10.076;2022-08-03T00:50:21;5.25;;;3.75;;
37647;SDS011;23490;53.656;10.076;2022-08-03T00:52:48;6.00;;;3.60;;
37647;SDS011;23490;53.656;10.076;2022-08-03T00:55:15;6.07;;;4.00;;
37647;SDS011;23490;53.656;10.076;2022-08-03T00:57:41;4.68;;;3.33;;
37647;SDS011;23490;53.656;10.076;2022-08-03T01:00:08;6.85;;;3.28;;
37647;SDS011;23490;53.656;10.076;2022-08-03T01:02:34;5.80;;;4.00;;
37647;SDS011;23490;53.656;10.076;2022-08-03T01:05:01;4.88;;;3.20;;
37647;SDS011;23490;53.656;10.076;2022-08-03T01:07:31;6.18;;;4.25;;
37647;SDS011;23490;53.656;10.076;2022-08-03T01:10:01;4.35;;;3.58;;
37647;SDS011;23490;53.656;10.076;2022-08-03T01:12:37;5.13;;;3.75;;
37647;SDS011;23490;53.656;10.076;2022-08-03T01:15:19;6.38;;;3.70;;
37647;SDS011;23490;53.656;10.076;2022-08-03T01:18:01;5.90;;;3.95;;
37647;SDS011;23490;53.656;10.076;2022-08-03T01:20:32;6.70;;;3.63;;
37647;SDS011;23490;53.656;10.076;2022-08-03T01:23:02;4.97;;;4.00;;
37647;SDS011;23490;53.656;10.076;2022-08-03T01:28:41;7.20;;;4.10;;
37647;SDS011;23490;53.656;10.076;2022-08-03T01:31:09;7.35;;;4.22;;
37647;SDS011;23490;53.656;10.076;2022-08-03T01:33:42;8.43;;;4.20;;
37647;SDS011;23490;53.656;10.076;2022-08-03T01:36:15;6.47;;;3.92;;
37647;SDS011;23490;53.656;10.076;2022-08-03T01:38:45;6.25;;;4.38;;
37647;SDS011;23490;53.656;10.076;2022-08-03T01:41:20;4.78;;;3.85;;
37647;SDS011;23490;53.656;10.076;2022-08-03T01:43:49;5.75;;;3.97;;
37647;SDS011;23490;53.656;10.076;2022-08-03T01:46:17;5.65;;;3.53;;
37647;SDS011;23490;53.656;10.076;2022-08-03T01:48:45;5.57;;;3.97;;
37647;SDS011;23490;53.656;10.076;2022-08-03T01:51:11;5.90;;;3.80;;
37647;SDS011;23490;53.656;10.076;2022-08-03T01:53:39;5.45;;;3.65;;
37647;SDS011;23490;53.656;10.076;2022-08-03T01:56:08;6.03;;;4.18;;
37647;SDS011;23490;53.656;10.076;2022-08-03T01:58:34;5.18;;;3.60;;
37647;SDS011;23490;53.656;10.076;2022-08-03T02:01:01;5.32;;;3.60;;
37647;SDS011;23490;53.656;10.076;2022-08-03T02:03:28;5.40;;;4.13;;
37647;SDS011;23490;53.656;10.076;2022-08-03T02:05:57;5.90;;;4.05;;
37647;SDS011;23490;53.656;10.076;2022-08-03T02:08:24;5.65;;;4.28;;
37647;SDS011;23490;53.656;10.076;2022-08-03T02:10:51;5.60;;;4.00;;
37647;SDS011;23490;53.656;10.076;2022-08-03T02:13:21;7.13;;;3.93;;
37647;SDS011;23490;53.656;10.076;2022-08-03T02:15:48;5.43;;;3.78;;
37647;SDS011;23490;53.656;10.076;2022-08-03T02:18:16;5.85;;;3.92;;
37647;SDS011;23490;53.656;10.076;2022-08-03T02:20:42;5.53;;;3.97;;
37647;SDS011;23490;53.656;10.076;2022-08-03T02:23:08;4.72;;;3.90;;
37647;SDS011;23490;53.656;10.076;2022-08-03T02:25:36;6.00;;;3.78;;
37647;SDS011;23490;53.656;10.076;2022-08-03T02:28:11;5.32;;;4.03;;
37647;SDS011;23490;53.656;10.076;2022-08-03T02:30:42;5.22;;;4.03;;
37647;SDS011;23490;53.656;10.076;2022-08-03T02:33:10;5.70;;;3.45;;
37647;SDS011;23490;53.656;10.076;2022-08-03T02:35:40;5.68;;;4.32;;
37647;SDS011;23490;53.656;10.076;2022-08-03T02:38:08;5.25;;;3.97;;
37647;SDS011;23490;53.656;10.076;2022-08-03T02:40:35;6.72;;;3.83;;
37647;SDS011;23490;53.656;10.076;2022-08-03T02:43:04;5.70;;;4.18;;
37647;SDS011;23490;53.656;10.076;2022-08-03T02:45:34;7.35;;;3.85;;
37647;SDS011;23490;53.656;10.076;2022-08-03T02:48:06;4.78;;;4.20;;
37647;SDS011;23490;53.656;10.076;2022-08-03T02:50:34;6.85;;;3.85;;
37647;SDS011;23490;53.656;10.076;2022-08-03T02:53:01;6.80;;;4.13;;
37647;SDS011;23490;53.656;10.076;2022-08-03T02:55:28;6.18;;;4.30;;
37647;SDS011;23490;53.656;10.076;2022-08-03T02:57:55;7.10;;;4.15;;
37647;SDS011;23490;53.656;10.076;2022-08-03T03:00:22;5.00;;;4.50;;
37647;SDS011;23490;53.656;10.076;2022-08-03T03:02:48;5.97;;;4.40;;
37647;SDS011;23490;53.656;10.076;2022-08-03T03:05:14;6.15;;;4.63;;
37647;SDS011;23490;53.656;10.076;2022-08-03T03:07:40;6.25;;;3.70;;
37647;SDS011;23490;53.656;10.076;2022-08-03T03:10:07;5.07;;;4.07;;
37647;SDS011;23490;53.656;10.076;2022-08-03T03:12:34;7.20;;;3.75;;
37647;SDS011;23490;53.656;10.076;2022-08-03T03:15:02;5.75;;;4.25;;
37647;SDS011;23490;53.656;10.076;2022-08-03T03:17:29;4.93;;;3.97;;
37647;SDS011;23490;53.656;10.076;2022-08-03T03:19:55;6.57;;;4.10;;
37647;SDS011;23490;53.656;10.076;2022-08-03T03:22:22;4.95;;;4.00;;
37647;SDS011;23490;53.656;10.076;2022-08-03T03:24:48;6.82;;;4.63;;
37647;SDS011;23490;53.656;10.076;2022-08-03T03:27:15;5.57;;;4.50;;
37647;SDS011;23490;53.656;10.076;2022-08-03T03:29:42;5.75;;;4.35;;
37647;SDS011;23490;53.656;10.076;2022-08-03T03:32:07;6.78;;;3.95;;
37647;SDS011;23490;53.656;10.076;2022-08-03T03:34:33;6.55;;;4.50;;
37647;SDS011;23490;53.656;10.076;2022-08-03T03:37:00;7.13;;;4.43;;
37647;SDS011;23490;53.656;10.076;2022-08-03T03:39:25;7.25;;;4.53;;
37647;SDS011;23490;53.656;10.076;2022-08-03T03:41:51;6.97;;;4.45;;
37647;SDS011;23490;53.656;10.076;2022-08-03T03:44:16;5.22;;;4.25;;
37647;SDS011;23490;53.656;10.076;2022-08-03T03:46:42;6.10;;;4.63;;
37647;SDS011;23490;53.656;10.076;2022-08-03T03:49:07;7.30;;;4.68;;
37647;SDS011;23490;53.656;10.076;2022-08-03T03:51:33;6.13;;;4.30;;
37647;SDS011;23490;53.656;10.076;2022-08-03T03:53:59;7.82;;;4.82;;
37647;SDS011;23490;53.656;10.076;2022-08-03T03:56:26;6.35;;;4.80;;
37647;SDS011;23490;53.656;10.076;2022-08-03T03:58:52;9.98;;;4.65;;
37647;SDS011;23490;53.656;10.076;2022-08-03T04:01:17;5.88;;;4.53;;
37647;SDS011;23490;53.656;10.076;2022-08-03T04:03:43;6.22;;;4.50;;
37647;SDS011;23490;53.656;10.076;2022-08-03T04:06:09;7.75;;;4.78;;
37647;SDS011;23490;53.656;10.076;2022-08-03T04:08:53;5.03;;;4.38;;
37647;SDS011;23490;53.656;10.076;2022-08-03T04:11:38;6.32;;;4.88;;
37647;SDS011;23490;53.656;10.076;2022-08-03T04:14:11;7.18;;;4.93;;
37647;SDS011;23490;53.656;10.076;2022-08-03T04:16:41;6.88;;;5.20;;
37647;SDS011;23490;53.656;10.076;2022-08-03T04:19:13;7.15;;;5.40;;
37647;SDS011;23490;53.656;10.076;2022-08-03T04:21:42;8.23;;;5.15;;
37647;SDS011;23490;53.656;10.076;2022-08-03T04:24:10;8.65;;;4.93;;
37647;SDS011;23490;53.656;10.076;2022-08-03T04:26:39;6.50;;;4.82;;
37647;SDS011;23490;53.656;10.076;2022-08-03T04:29:06;8.10;;;5.28;;
37647;SDS011;23490;53.656;10.076;2022-08-03T04:31:35;6.60;;;4.80;;
37647;SDS011;23490;53.656;10.076;2022-08-03T04:34:02;5.65;;;4.97;;
37647;SDS011;23490;53.656;10.076;2022-08-03T04:36:30;6.88;;;4.88;;
37647;SDS011;23490;53.656;10.076;2022-08-03T04:41:27;6.80;;;5.30;;
37647;SDS011;23490;53.656;10.076;2022-08-03T04:43:55;5.65;;;4.60;;
37647;SDS011;23490;53.656;10.076;2022-08-03T04:46:25;6.93;;;5.00;;
37647;SDS011;23490;53.656;10.076;2022-08-03T04:48:52;6.75;;;4.90;;
37647;SDS011;23490;53.656;10.076;2022-08-03T04:51:18;6.97;;;4.70;;
37647;SDS011;23490;53.656;10.076;2022-08-03T04:53:43;9.30;;;5.28;;
37647;SDS011;23490;53.656;10.076;2022-08-03T04:56:09;8.15;;;5.25;;
37647;SDS011;23490;53.656;10.076;2022-08-03T04:58:34;5.93;;;5.13;;
37647;SDS011;23490;53.656;10.076;2022-08-03T05:01:00;8.70;;;5.18;;
37647;SDS011;23490;53.656;10.076;2022-08-03T05:03:25;10.60;;;4.60;;
37647;SDS011;23490;53.656;10.076;2022-08-03T05:05:51;6.43;;;5.28;;
37647;SDS011;23490;53.656;10.076;2022-08-03T05:08:17;6.03;;;5.00;;
37647;SDS011;23490;53.656;10.076;2022-08-03T05:10:42;6.43;;;5.00;;
37647;SDS011;23490;53.656;10.076;2022-08-03T05:13:08;7.68;;;5.32;;
37647;SDS011;23490;53.656;10.076;2022-08-03T05:15:37;6.93;;;4.80;;
37647;SDS011;23490;53.656;10.076;2022-08-03T05:18:03;7.07;;;5.00;;
37647;SDS011;23490;53.656;10.076;2022-08-03T05:20:29;7.55;;;5.75;;
37647;SDS011;23490;53.656;10.076;2022-08-03T05:22:55;8.23;;;5.93;;
37647;SDS011;23490;53.656;10.076;2022-08-03T05:25:21;8.63;;;6.15;;
37647;SDS011;23490;53.656;10.076;2022-08-03T05:27:46;8.45;;;5.63;;
37647;SDS011;23490;53.656;10.076;2022-08-03T05:30:11;6.38;;;5.38;;
37647;SDS011;23490;53.656;10.076;2022-08-03T05:32:37;7.22;;;5.45;;
37647;SDS011;23490;53.656;10.076;2022-08-03T05:35:02;8.98;;;5.22;;
37647;SDS011;23490;53.656;10.076;2022-08-03T05:37:28;8.20;;;5.50;;
37647;SDS011;23490;53.656;10.076;2022-08-03T05:39:53;10.60;;;5.60;;
37647;SDS011;23490;53.656;10.076;2022-08-03T05:42:18;6.47;;;5.20;;
37647;SDS011;23490;53.656;10.076;2022-08-03T05:44:44;7.53;;;5.47;;
37647;SDS011;23490;53.656;10.076;2022-08-03T05:47:09;7.80;;;5.03;;
37647;SDS011;23490;53.656;10.076;2022-08-03T05:49:34;6.75;;;4.80;;
37647;SDS011;23490;53.656;10.076;2022-08-03T05:52:00;7.55;;;4.95;;
37647;SDS011;23490;53.656;10.076;2022-08-03T05:54:25;9.40;;;4.90;;
37647;SDS011;23490;53.656;10.076;2022-08-03T05:56:51;7.13;;;5.07;;
37647;SDS011;23490;53.656;10.076;2022-08-03T05:59:16;9.55;;;4.95;;
37647;SDS011;23490;53.656;10.076;2022-08-03T06:01:42;8.23;;;4.82;;
37647;SDS011;23490;53.656;10.076;2022-08-03T06:04:07;8.57;;;5.00;;
37647;SDS011;23490;53.656;10.076;2022-08-03T06:06:32;6.05;;;4.53;;
37647;SDS011;23490;53.656;10.076;2022-08-03T06:08:58;6.38;;;4.25;;
37647;SDS011;23490;53.656;10.076;2022-08-03T06:11:23;6.65;;;4.50;;
37647;SDS011;23490;53.656;10.076;2022-08-03T06:13:49;5.30;;;4.22;;
37647;SDS011;23490;53.656;10.076;2022-08-03T06:16:14;6.75;;;4.50;;
37647;SDS011;23490;53.656;10.076;2022-08-03T06:18:40;6.72;;;4.65;;
37647;SDS011;23490;53.656;10.076;2022-08-03T06:21:05;8.80;;;5.10;;
37647;SDS011;23490;53.656;10.076;2022-08-03T06:23:31;7.03;;;4.55;;
37647;SDS011;23490;53.656;10.076;2022-08-03T06:25:57;8.43;;;4.43;;
37647;SDS011;23490;53.656;10.076;2022-08-03T06:28:22;9.75;;;4.07;;
37647;SDS011;23490;53.656;10.076;2022-08-03T06:30:47;10.43;;;4.47;;
37647;SDS011;23490;53.656;10.076;2022-08-03T06:33:13;6.22;;;3.97;;
37647;SDS011;23490;53.656;10.076;2022-08-03T06:35:38;11.63;;;4.45;;
37647;SDS011;23490;53.656;10.076;2022-08-03T06:38:03;9.18;;;4.10;;
37647;SDS011;23490;53.656;10.076;2022-08-03T06:40:29;6.70;;;4.13;;
37647;SDS011;23490;53.656;10.076;2022-08-03T06:42:58;10.82;;;4.18;;
37647;SDS011;23490;53.656;10.076;2022-08-03T06:45:24;6.00;;;3.88;;
37647;SDS011;23490;53.656;10.076;2022-08-03T06:50:32;8.25;;;3.60;;
37647;SDS011;23490;53.656;10.076;2022-08-03T06:52:58;7.30;;;4.07;;
37647;SDS011;23490;53.656;10.076;2022-08-03T06:55:24;10.80;;;4.00;;
37647;SDS011;23490;53.656;10.076;2022-08-03T06:57:50;8.25;;;3.80;;
37647;SDS011;23490;53.656;10.076;2022-08-03T07:00:15;7.88;;;3.58;;
37647;SDS011;23490;53.656;10.076;2022-08-03T07:02:41;9.60;;;3.58;;
37647;SDS011;23490;53.656;10.076;2022-08-03T07:05:07;6.68;;;3.25;;
37647;SDS011;23490;53.656;10.076;2022-08-03T07:07:33;10.45;;;3.53;;
37647;SDS011;23490;53.656;10.076;2022-08-03T07:09:58;7.70;;;3.00;;
37647;SDS011;23490;53.656;10.076;2022-08-03T07:12:24;6.63;;;3.13;;
37647;SDS011;23490;53.656;10.076;2022-08-03T07:14:50;6.05;;;3.40;;
37647;SDS011;23490;53.656;10.076;2022-08-03T07:17:16;7.13;;;3.30;;
37647;SDS011;23490;53.656;10.076;2022-08-03T07:19:41;5.53;;;3.25;;
37647;SDS011;23490;53.656;10.076;2022-08-03T07:22:07;4.50;;;2.78;;
37647;SDS011;23490;53.656;10.076;2022-08-03T07:24:33;9.48;;;3.55;;
37647;SDS011;23490;53.656;10.076;2022-08-03T07:26:58;7.57;;;3.17;;
37647;SDS011;23490;53.656;10.076;2022-08-03T07:29:23;5.10;;;2.95;;
37647;SDS011;23490;53.656;10.076;2022-08-03T07:31:49;5.22;;;3.05;;
37647;SDS011;23490;53.656;10.076;2022-08-03T07:34:14;9.13;;;3.40;;
37647;SDS011;23490;53.656;10.076;2022-08-03T07:36:39;6.22;;;3.20;;
37647;SDS011;23490;53.656;10.076;2022-08-03T07:39:05;7.07;;;2.90;;
37647;SDS011;23490;53.656;10.076;2022-08-03T07:41:30;5.25;;;2.75;;
37647;SDS011;23490;53.656;10.076;2022-08-03T07:43:56;6.03;;;3.20;;
37647;SDS011;23490;53.656;10.076;2022-08-03T07:46:21;7.97;;;3.00;;
37647;SDS011;23490;53.656;10.076;2022-08-03T07:48:47;7.47;;;2.70;;
37647;SDS011;23490;53.656;10.076;2022-08-03T07:51:12;5.90;;;3.10;;
37647;SDS011;23490;53.656;10.076;2022-08-03T07:53:37;5.82;;;2.60;;
37647;SDS011;23490;53.656;10.076;2022-08-03T07:56:03;9.30;;;2.78;;
37647;SDS011;23490;53.656;10.076;2022-08-03T07:58:29;6.55;;;2.95;;
37647;SDS011;23490;53.656;10.076;2022-08-03T08:00:54;7.97;;;2.40;;
37647;SDS011;23490;53.656;10.076;2022-08-03T08:03:19;7.40;;;2.70;;
37647;SDS011;23490;53.656;10.076;2022-08-03T08:05:46;6.40;;;2.67;;
37647;SDS011;23490;53.656;10.076;2022-08-03T08:08:11;6.88;;;2.85;;
37647;SDS011;23490;53.656;10.076;2022-08-03T08:10:37;6.57;;;2.63;;
37647;SDS011;23490;53.656;10.076;2022-08-03T08:13:03;4.70;;;2.30;;
37647;SDS011;23490;53.656;10.076;2022-08-03T08:15:29;5.75;;;2.80;;
37647;SDS011;23490;53.656;10.076;2022-08-03T08:17:57;5.45;;;2.55;;
37647;SDS011;23490;53.656;10.076;2022-08-03T08:20:26;5.43;;;2.80;;
37647;SDS011;23490;53.656;10.076;2022-08-03T08:22:59;6.10;;;2.53;;
37647;SDS011;23490;53.656;10.076;2022-08-03T08:25:30;5.75;;;2.92;;
37647;SDS011;23490;53.656;10.076;2022-08-03T08:27:56;3.90;;;1.80;;
37647;SDS011;23490;53.656;10.076;2022-08-03T08:30:22;4.93;;;1.80;;
37647;SDS011;23490;53.656;10.076;2022-08-03T08:32:48;3.47;;;1.40;;
37647;SDS011;23490;53.656;10.076;2022-08-03T08:35:15;3.90;;;1.60;;
37647;SDS011;23490;53.656;10.076;2022-08-03T08:37:41;2.58;;;1.70;;
37647;SDS011;23490;53.656;10.076;2022-08-03T08:40:07;3.20;;;1.55;;
37647;SDS011;23490;53.656;10.076;2022-08-03T08:42:36;5.65;;;1.92;;
37647;SDS011;23490;53.656;10.076;2022-08-03T08:45:02;3.08;;;1.67;;
37647;SDS011;23490;53.656;10.076;2022-08-03T08:47:33;5.43;;;1.80;;
37647;SDS011;23490;53.656;10.076;2022-08-03T08:50:04;5.53;;;2.00;;
37647;SDS011;23490;53.656;10.076;2022-08-03T08:52:31;5.60;;;2.08;;
37647;SDS011;23490;53.656;10.076;2022-08-03T08:55:00;4.35;;;1.48;;
37647;SDS011;23490;53.656;10.076;2022-08-03T08:57:29;5.95;;;1.77;;
37647;SDS011;23490;53.656;10.076;2022-08-03T08:59:57;4.00;;;1.48;;
37647;SDS011;23490;53.656;10.076;2022-08-03T09:02:23;4.78;;;2.00;;
37647;SDS011;23490;53.656;10.076;2022-08-03T09:04:49;5.80;;;1.70;;
37647;SDS011;23490;53.656;10.076;2022-08-03T09:07:16;2.40;;;1.67;;
37647;SDS011;23490;53.656;10.076;2022-08-03T09:09:42;3.70;;;1.52;;
37647;SDS011;23490;53.656;10.076;2022-08-03T09:12:08;4.53;;;1.73;;
37647;SDS011;23490;53.656;10.076;2022-08-03T09:14:33;5.80;;;1.70;;
37647;SDS011;23490;53.656;10.076;2022-08-03T09:17:00;5.25;;;1.83;;
37647;SDS011;23490;53.656;10.076;2022-08-03T09:19:26;4.38;;;1.65;;
37647;SDS011;23490;53.656;10.076;2022-08-03T09:22:15;3.13;;;1.85;;
37647;SDS011;23490;53.656;10.076;2022-08-03T09:24:54;2.78;;;1.70;;
37647;SDS011;23490;53.656;10.076;2022-08-03T09:27:21;3.58;;;1.63;;
37647;SDS011;23490;53.656;10.076;2022-08-03T09:29:47;2.08;;;1.60;;
37647;SDS011;23490;53.656;10.076;2022-08-03T09:32:13;5.20;;;1.90;;
37647;SDS011;23490;53.656;10.076;2022-08-03T09:34:40;4.28;;;1.85;;
37647;SDS011;23490;53.656;10.076;2022-08-03T09:37:13;8.13;;;2.10;;
37647;SDS011;23490;53.656;10.076;2022-08-03T09:39:40;9.13;;;1.75;;
37647;SDS011;23490;53.656;10.076;2022-08-03T09:42:06;2.90;;;1.63;;
37647;SDS011;23490;53.656;10.076;2022-08-03T09:44:34;4.47;;;1.77;;
37647;SDS011;23490;53.656;10.076;2022-08-03T09:47:01;4.68;;;1.50;;
37647;SDS011;23490;53.656;10.076;2022-08-03T09:49:28;4.65;;;1.63;;
37647;SDS011;23490;53.656;10.076;2022-08-03T09:51:53;6.03;;;1.70;;
37647;SDS011;23490;53.656;10.076;2022-08-03T09:54:25;5.50;;;1.60;;
37647;SDS011;23490;53.656;10.076;2022-08-03T09:56:55;4.28;;;1.63;;
37647;SDS011;23490;53.656;10.076;2022-08-03T09:59:24;2.60;;;1.50;;
37647;SDS011;23490;53.656;10.076;2022-08-03T10:01:52;4.15;;;1.70;;
37647;SDS011;23490;53.656;10.076;2022-08-03T10:04:18;8.52;;;1.52;;
37647;SDS011;23490;53.656;10.076;2022-08-03T10:06:44;4.95;;;1.30;;
37647;SDS011;23490;53.656;10.076;2022-08-03T10:09:25;4.05;;;1.30;;
37647;SDS011;23490;53.656;10.076;2022-08-03T10:11:50;4.28;;;1.65;;
37647;SDS011;23490;53.656;10.076;2022-08-03T10:14:16;4.80;;;1.50;;
37647;SDS011;23490;53.656;10.076;2022-08-03T10:16:45;6.53;;;1.30;;
37647;SDS011;23490;53.656;10.076;2022-08-03T10:19:11;5.00;;;1.85;;
37647;SDS011;23490;53.656;10.076;2022-08-03T10:21:39;2.45;;;1.45;;
37647;SDS011;23490;53.656;10.076;2022-08-03T10:24:08;4.53;;;1.60;;
37647;SDS011;23490;53.656;10.076;2022-08-03T10:26:38;3.25;;;1.40;;
37647;SDS011;23490;53.656;10.076;2022-08-03T10:29:05;10.02;;;1.83;;
37647;SDS011;23490;53.656;10.076;2022-08-03T10:31:43;5.18;;;1.85;;
37647;SDS011;23490;53.656;10.076;2022-08-03T10:34:14;3.28;;;1.40;;
37647;SDS011;23490;53.656;10.076;2022-08-03T10:36:47;3.50;;;1.33;;
37647;SDS011;23490;53.656;10.076;2022-08-03T10:39:14;4.43;;;1.30;;
37647;SDS011;23490;53.656;10.076;2022-08-03T10:41:44;5.80;;;1.65;;
37647;SDS011;23490;53.656;10.076;2022-08-03T10:44:13;3.38;;;1.55;;
37647;SDS011;23490;53.656;10.076;2022-08-03T10:46:43;2.95;;;1.48;;
37647;SDS011;23490;53.656;10.076;2022-08-03T10:49:13;5.80;;;1.60;;
37647;SDS011;23490;53.656;10.076;2022-08-03T10:51:41;3.65;;;1.45;;
37647;SDS011;23490;53.656;10.076;2022-08-03T10:54:35;4.67;;;1.50;;
37647;SDS011;23490;53.656;10.076;2022-08-03T11:00:23;3.50;;;1.27;;
37647;SDS011;23490;53.656;10.076;2022-08-03T11:05:39;5.10;;;1.58;;
37647;SDS011;23490;53.656;10.076;2022-08-03T11:10:43;5.88;;;1.65;;
37647;SDS011;23490;53.656;10.076;2022-08-03T11:13:08;3.28;;;1.52;;
37647;SDS011;23490;53.656;10.076;2022-08-03T11:15:36;3.67;;;1.48;;
37647;SDS011;23490;53.656;10.076;2022-08-03T11:18:05;6.43;;;1.98;;
37647;SDS011;23490;53.656;10.076;2022-08-03T11:23:19;6.78;;;1.38;;
37647;SDS011;23490;53.656;10.076;2022-08-03T11:26:13;5.82;;;1.58;;
37647;SDS011;23490;53.656;10.076;2022-08-03T11:28:43;3.58;;;1.40;;
37647;SDS011;23490;53.656;10.076;2022-08-03T11:34:05;3.75;;;1.30;;
37647;SDS011;23490;53.656;10.076;2022-08-03T11:44:46;2.78;;;1.30;;
37647;SDS011;23490;53.656;10.076;2022-08-03T11:47:16;5.30;;;1.60;;
37647;SDS011;23490;53.656;10.076;2022-08-03T11:49:47;4.63;;;1.77;;
37647;SDS011;23490;53.656;10.076;2022-08-03T11:52:13;5.25;;;1.15;;
37647;SDS011;23490;53.656;10.076;2022-08-03T11:54:41;5.20;;;1.40;;
37647;SDS011;23490;53.656;10.076;2022-08-03T11:57:06;6.13;;;2.05;;
37647;SDS011;23490;53.656;10.076;2022-08-03T11:59:32;3.75;;;1.40;;
37647;SDS011;23490;53.656;10.076;2022-08-03T12:02:09;5.03;;;1.70;;
37647;SDS011;23490;53.656;10.076;2022-08-03T12:04:49;5.50;;;1.80;;
37647;SDS011;23490;53.656;10.076;2022-08-03T12:07:15;4.75;;;1.60;;
37647;SDS011;23490;53.656;10.076;2022-08-03T12:09:41;3.55;;;1.30;;
37647;SDS011;23490;53.656;10.076;2022-08-03T12:12:07;5.68;;;1.50;;
37647;SDS011;23490;53.656;10.076;2022-08-03T12:14:32;3.83;;;1.33;;
37647;SDS011;23490;53.656;10.076;2022-08-03T12:16:58;3.47;;;1.70;;
37647;SDS011;23490;53.656;10.076;2022-08-03T12:19:23;4.45;;;1.63;;
37647;SDS011;23490;53.656;10.076;2022-08-03T12:21:49;4.20;;;1.30;;
37647;SDS011;23490;53.656;10.076;2022-08-03T12:24:14;4.10;;;1.45;;
37647;SDS011;23490;53.656;10.076;2022-08-03T12:26:44;3.00;;;1.40;;
37647;SDS011;23490;53.656;10.076;2022-08-03T12:29:17;5.30;;;1.40;;
37647;SDS011;23490;53.656;10.076;2022-08-03T12:31:44;7.90;;;1.75;;
37647;SDS011;23490;53.656;10.076;2022-08-03T12:34:10;3.45;;;1.48;;
37647;SDS011;23490;53.656;10.076;2022-08-03T12:36:35;4.15;;;1.40;;
37647;SDS011;23490;53.656;10.076;2022-08-03T12:39:04;5.47;;;1.77;;
37647;SDS011;23490;53.656;10.076;2022-08-03T12:41:35;3.83;;;1.30;;
37647;SDS011;23490;53.656;10.076;2022-08-03T12:44:02;4.05;;;1.35;;
37647;SDS011;23490;53.656;10.076;2022-08-03T12:46:32;3.27;;;1.57;;
37647;SDS011;23490;53.656;10.076;2022-08-03T12:56:55;5.63;;;2.05;;
37647;SDS011;23490;53.656;10.076;2022-08-03T12:59:30;4.13;;;1.60;;
37647;SDS011;23490;53.656;10.076;2022-08-03T13:01:57;3.95;;;1.50;;
37647;SDS011;23490;53.656;10.076;2022-08-03T13:06:55;2.80;;;1.63;;
37647;SDS011;23490;53.656;10.076;2022-08-03T13:09:52;4.85;;;1.88;;
37647;SDS011;23490;53.656;10.076;2022-08-03T13:12:20;6.75;;;1.75;;
37647;SDS011;23490;53.656;10.076;2022-08-03T13:14:56;4.63;;;1.65;;
37647;SDS011;23490;53.656;10.076;2022-08-03T13:17:24;5.57;;;1.85;;
37647;SDS011;23490;53.656;10.076;2022-08-03T13:19:50;4.50;;;1.52;;
37647;SDS011;23490;53.656;10.076;2022-08-03T13:24:43;5.47;;;2.08;;
37647;SDS011;23490;53.656;10.076;2022-08-03T13:27:10;8.65;;;4.13;;
37647;SDS011;23490;53.656;10.076;2022-08-03T13:29:35;4.13;;;1.90;;
37647;SDS011;23490;53.656;10.076;2022-08-03T13:32:01;5.25;;;1.70;;
37647;SDS011;23490;53.656;10.076;2022-08-03T13:34:27;9.15;;;1.73;;
37647;SDS011;23490;53.656;10.076;2022-08-03T13:36:53;5.22;;;2.25;;
37647;SDS011;23490;53.656;10.076;2022-08-03T13:39:18;4.25;;;1.55;;
37647;SDS011;23490;53.656;10.076;2022-08-03T13:41:44;4.35;;;1.58;;
37647;SDS011;23490;53.656;10.076;2022-08-03T13:44:10;5.20;;;1.38;;
37647;SDS011;23490;53.656;10.076;2022-08-03T13:46:36;7.10;;;1.63;;
37647;SDS011;23490;53.656;10.076;2022-08-03T13:49:02;3.88;;;1.42;;
37647;SDS011;23490;53.656;10.076;2022-08-03T13:51:27;8.15;;;1.90;;
37647;SDS011;23490;53.656;10.076;2022-08-03T13:53:52;5.60;;;1.50;;
37647;SDS011;23490;53.656;10.076;2022-08-03T13:56:18;4.38;;;1.92;;
37647;SDS011;23490;53.656;10.076;2022-08-03T13:58:43;3.88;;;1.95;;
37647;SDS011;23490;53.656;10.076;2022-08-03T14:01:08;4.55;;;1.48;;
37647;SDS011;23490;53.656;10.076;2022-08-03T14:03:34;5.43;;;1.83;;
37647;SDS011;23490;53.656;10.076;2022-08-03T14:05:59;4.10;;;1.70;;
37647;SDS011;23490;53.656;10.076;2022-08-03T14:08:24;6.10;;;1.70;;
37647;SDS011;23490;53.656;10.076;2022-08-03T14:10:50;5.20;;;1.33;;
37647;SDS011;23490;53.656;10.076;2022-08-03T14:13:15;5.10;;;1.58;;
37647;SDS011;23490;53.656;10.076;2022-08-03T14:15:41;5.53;;;1.65;;
37647;SDS011;23490;53.656;10.076;2022-08-03T14:18:06;6.07;;;1.83;;
37647;SDS011;23490;53.656;10.076;2022-08-03T14:20:33;7.68;;;1.77;;
37647;SDS011;23490;53.656;10.076;2022-08-03T14:22:59;4.75;;;2.00;;
37647;SDS011;23490;53.656;10.076;2022-08-03T14:25:24;4.60;;;1.58;;
37647;SDS011;23490;53.656;10.076;2022-08-03T14:27:49;5.43;;;1.70;;
37647;SDS011;23490;53.656;10.076;2022-08-03T14:30:15;6.43;;;1.80;;
37647;SDS011;23490;53.656;10.076;2022-08-03T14:32:40;4.85;;;1.42;;
37647;SDS011;23490;53.656;10.076;2022-08-03T14:35:06;5.93;;;1.50;;
37647;SDS011;23490;53.656;10.076;2022-08-03T14:37:32;8.43;;;2.17;;
37647;SDS011;23490;53.656;10.076;2022-08-03T14:39:57;3.92;;;1.48;;
37647;SDS011;23490;53.656;10.076;2022-08-03T14:42:23;3.58;;;1.58;;
37647;SDS011;23490;53.656;10.076;2022-08-03T14:44:49;10.85;;;2.05;;
37647;SDS011;23490;53.656;10.076;2022-08-03T14:47:14;5.40;;;1.70;;
37647;SDS011;23490;53.656;10.076;2022-08-03T14:49:40;4.82;;;1.73;;
37647;SDS011;23490;53.656;10.076;2022-08-03T14:52:05;6.32;;;1.58;;
37647;SDS011;23490;53.656;10.076;2022-08-03T14:54:31;7.43;;;1.85;;
37647;SDS011;23490;53.656;10.076;2022-08-03T14:56:56;3.97;;;1.60;;
37647;SDS011;23490;53.656;10.076;2022-08-03T14:59:22;7.57;;;1.92;;
37647;SDS011;23490;53.656;10.076;2022-08-03T15:01:48;6.57;;;1.67;;
37647;SDS011;23490;53.656;10.076;2022-08-03T15:04:13;4.85;;;1.60;;
37647;SDS011;23490;53.656;10.076;2022-08-03T15:06:39;3.60;;;1.70;;
37647;SDS011;23490;53.656;10.076;2022-08-03T15:09:04;4.78;;;1.88;;
37647;SDS011;23490;53.656;10.076;2022-08-03T15:11:30;5.80;;;1.50;;
37647;SDS011;23490;53.656;10.076;2022-08-03T15:13:55;4.22;;;1.90;;
37647;SDS011;23490;53.656;10.076;2022-08-03T15:16:20;4.32;;;1.77;;
37647;SDS011;23490;53.656;10.076;2022-08-03T15:18:46;2.88;;;1.45;;